Time;durP1;ratioP1;P1;durP2;ratioP2;P2;SDS_P1;SDS_P2;PMS_P1;PMS_P2;Temp;Humidity;BMP_temperature;BMP_pressure;BME280_temperature;BME280_humidity;BME280_pressure;Samples;Min_cycle;Max_cycle;Signal;HPM_P1;HPM_P2
2022/05/30 00:01:44;;;;;;;1.20;1.10;;;;;;;;;;5072136;28;20441;-88
2022/05/30 00:04:10;;;;;;;1.92;0.90;;;;;;;;;;5072253;28;20400;-87
2022/05/30 00:06:36;;;;;;;1.30;0.80;;;;;;;;;;5072253;28;20764;-87
2022/05/30 00:09:02;;;;;;;1.83;0.90;;;;;;;;;;5072258;28;20376;-87
2022/05/30 00:11:28;;;;;;;2.80;0.85;;;;;;;;;;5058880;28;20381;-87
2022/05/30 00:13:54;;;;;;;1.30;0.70;;;;;;;;;;5070201;28;20438;-87
2022/05/30 00:16:24;;;;;;;3.50;0.80;;;;;;;;;;5072030;28;20431;-87
2022/05/30 00:18:51;;;;;;;1.83;1.07;;;;;;;;;;5069320;28;20407;-87
2022/05/30 00:21:20;;;;;;;1.60;1.00;;;;;;;;;;5051904;28;20377;-87
2022/05/30 00:23:47;;;;;;;1.10;1.00;;;;;;;;;;5053216;28;20377;-88
2022/05/30 00:26:13;;;;;;;1.83;1.10;;;;;;;;;;5072039;28;20376;-87
2022/05/30 00:28:39;;;;;;;1.50;1.00;;;;;;;;;;5072030;28;20399;-87
2022/05/30 00:31:10;;;;;;;2.23;0.93;;;;;;;;;;5066591;28;20382;-87
2022/05/30 00:33:36;;;;;;;1.20;0.80;;;;;;;;;;5064070;28;20499;-88
2022/05/30 00:36:02;;;;;;;1.30;0.90;;;;;;;;;;5071758;28;20375;-87
2022/05/30 00:38:28;;;;;;;1.45;0.88;;;;;;;;;;5071937;28;20384;-88
2022/05/30 00:40:54;;;;;;;2.45;1.00;;;;;;;;;;5071893;28;20383;-87
2022/05/30 00:43:26;;;;;;;1.52;0.90;;;;;;;;;;5036850;28;20889;-87
2022/05/30 00:45:53;;;;;;;3.30;0.95;;;;;;;;;;5074396;28;20387;-87
2022/05/30 00:48:20;;;;;;;2.53;0.88;;;;;;;;;;5068522;28;20458;-87
2022/05/30 00:50:49;;;;;;;1.27;0.90;;;;;;;;;;5069275;28;20384;-88
2022/05/30 00:53:15;;;;;;;1.48;0.80;;;;;;;;;;5069962;28;20460;-87
2022/05/30 00:55:43;;;;;;;2.13;0.82;;;;;;;;;;5045672;28;20809;-87
2022/05/30 00:58:10;;;;;;;1.02;0.80;;;;;;;;;;5075549;28;20435;-87
2022/05/30 01:00:36;;;;;;;1.23;0.90;;;;;;;;;;5057445;28;20396;-88
2022/05/30 01:08:32;;;;;;;1.35;0.98;;;;;;;;;;5075492;28;20378;-88
2022/05/30 01:10:58;;;;;;;1.65;0.98;;;;;;;;;;5075397;28;20379;-88
2022/05/30 01:13:27;;;;;;;3.47;1.00;;;;;;;;;;5057563;28;20749;-87
2022/05/30 01:15:54;;;;;;;1.88;0.85;;;;;;;;;;5075112;28;20376;-87
2022/05/30 01:18:23;;;;;;;2.50;0.90;;;;;;;;;;5075208;28;20403;-88
2022/05/30 01:21:07;;;;;;;1.02;0.70;;;;;;;;;;5075094;28;20403;-87
2022/05/30 01:23:44;;;;;;;1.60;0.90;;;;;;;;;;5075021;28;20386;-88
2022/05/30 01:26:13;;;;;;;1.73;0.90;;;;;;;;;;5075309;28;20412;-88
2022/05/30 01:28:55;;;;;;;2.03;1.00;;;;;;;;;;5075006;28;20412;-87
2022/05/30 01:31:21;;;;;;;1.90;1.00;;;;;;;;;;5074951;28;20465;-87
2022/05/30 01:33:47;;;;;;;2.90;1.10;;;;;;;;;;5057002;28;20415;-87
2022/05/30 01:36:13;;;;;;;1.40;1.00;;;;;;;;;;5075055;28;20478;-87
2022/05/30 01:38:39;;;;;;;1.20;0.95;;;;;;;;;;5056917;28;20430;-87
2022/05/30 01:41:06;;;;;;;2.20;1.10;;;;;;;;;;5060685;28;20463;-87
2022/05/30 01:43:32;;;;;;;2.65;1.30;;;;;;;;;;5057539;28;20419;-87
2022/05/30 01:46:04;;;;;;;1.47;0.97;;;;;;;;;;5074688;28;20379;-87
2022/05/30 01:48:30;;;;;;;2.22;0.98;;;;;;;;;;5075222;28;20387;-87
2022/05/30 01:50:57;;;;;;;2.03;0.90;;;;;;;;;;5074555;28;20737;-87
2022/05/30 01:53:23;;;;;;;2.13;1.20;;;;;;;;;;5069945;28;20428;-86
2022/05/30 01:55:49;;;;;;;2.33;1.00;;;;;;;;;;5054922;28;20389;-86
2022/05/30 01:58:15;;;;;;;1.58;1.10;;;;;;;;;;5068516;28;20409;-87
2022/05/30 02:00:41;;;;;;;2.13;1.10;;;;;;;;;;5072055;28;20884;-87
2022/05/30 02:03:07;;;;;;;3.15;1.20;;;;;;;;;;5051513;28;20387;-87
2022/05/30 02:05:33;;;;;;;2.90;1.38;;;;;;;;;;5069107;28;20388;-88
2022/05/30 02:08:01;;;;;;;1.70;1.00;;;;;;;;;;5050844;28;20397;-86
2022/05/30 02:10:27;;;;;;;1.25;1.00;;;;;;;;;;5039621;28;20734;-87
2022/05/30 02:12:53;;;;;;;2.38;1.30;;;;;;;;;;5032963;28;20384;-87
2022/05/30 02:15:19;;;;;;;1.45;1.10;;;;;;;;;;5043206;28;20741;-87
2022/05/30 02:17:45;;;;;;;3.20;1.30;;;;;;;;;;5038520;28;20408;-87
2022/05/30 02:20:12;;;;;;;1.95;1.17;;;;;;;;;;5066375;28;20395;-87
2022/05/30 02:22:38;;;;;;;1.83;1.15;;;;;;;;;;5071819;28;20372;-87
2022/05/30 02:25:04;;;;;;;2.50;1.27;;;;;;;;;;5065048;28;20849;-88
2022/05/30 02:27:30;;;;;;;1.95;1.25;;;;;;;;;;5055853;28;20717;-87
2022/05/30 02:29:56;;;;;;;1.48;1.20;;;;;;;;;;5071871;28;20463;-86
2022/05/30 02:32:22;;;;;;;1.83;1.30;;;;;;;;;;5065177;28;20862;-86
2022/05/30 02:37:34;;;;;;;1.60;1.35;;;;;;;;;;5073836;28;20529;-87
2022/05/30 02:40:00;;;;;;;3.03;1.42;;;;;;;;;;5073733;28;20379;-87
2022/05/30 02:42:26;;;;;;;1.48;1.30;;;;;;;;;;5056748;28;20380;-87
2022/05/30 02:44:52;;;;;;;2.38;1.42;;;;;;;;;;5073582;28;20375;-87
2022/05/30 02:47:18;;;;;;;1.70;1.30;;;;;;;;;;5073612;28;20372;-87
2022/05/30 02:49:44;;;;;;;1.60;1.30;;;;;;;;;;5068487;28;20889;-87
2022/05/30 02:52:10;;;;;;;1.73;1.25;;;;;;;;;;5064414;28;20379;-87
2022/05/30 02:54:36;;;;;;;1.67;1.30;;;;;;;;;;5073446;28;20399;-87
2022/05/30 02:57:02;;;;;;;1.45;1.33;;;;;;;;;;5070597;28;20399;-87
2022/05/30 02:59:29;;;;;;;2.38;1.23;;;;;;;;;;5035486;28;20453;-87
2022/05/30 03:01:55;;;;;;;2.40;1.40;;;;;;;;;;5070529;28;20455;-87
2022/05/30 03:04:21;;;;;;;2.83;1.30;;;;;;;;;;5069184;28;20376;-87
2022/05/30 03:06:47;;;;;;;1.30;1.20;;;;;;;;;;5068519;28;20462;-87
2022/05/30 03:09:14;;;;;;;2.08;1.50;;;;;;;;;;5072137;28;20376;-87
2022/05/30 03:11:40;;;;;;;2.10;1.58;;;;;;;;;;5073215;28;20395;-87
2022/05/30 03:14:06;;;;;;;1.73;1.50;;;;;;;;;;5073595;28;20392;-87
2022/05/30 03:16:32;;;;;;;2.85;1.40;;;;;;;;;;5072950;28;20404;-87
2022/05/30 03:18:58;;;;;;;1.30;1.20;;;;;;;;;;5072914;28;20375;-87
2022/05/30 03:21:24;;;;;;;1.55;1.38;;;;;;;;;;5072846;28;20383;-87
2022/05/30 03:23:52;;;;;;;2.35;1.45;;;;;;;;;;5072846;28;20387;-88
2022/05/30 03:26:18;;;;;;;2.33;1.40;;;;;;;;;;5073123;28;20379;-87
2022/05/30 03:28:44;;;;;;;2.33;1.50;;;;;;;;;;5055103;28;20411;-87
2022/05/30 03:31:10;;;;;;;4.20;1.70;;;;;;;;;;5072726;28;20379;-86
2022/05/30 03:33:37;;;;;;;1.98;1.30;;;;;;;;;;5072588;28;20871;-87
2022/05/30 03:36:07;;;;;;;1.38;1.20;;;;;;;;;;5072529;28;20456;-87
2022/05/30 03:38:33;;;;;;;2.10;1.40;;;;;;;;;;5072582;28;20861;-87
2022/05/30 03:40:59;;;;;;;2.35;1.30;;;;;;;;;;5072533;28;20437;-87
2022/05/30 03:43:26;;;;;;;1.80;1.47;;;;;;;;;;5055315;28;20383;-87
2022/05/30 03:45:52;;;;;;;1.92;1.50;;;;;;;;;;5072453;28;20866;-87
2022/05/30 03:48:20;;;;;;;2.22;1.48;;;;;;;;;;5072520;28;20412;-87
2022/05/30 03:50:47;;;;;;;1.65;1.50;;;;;;;;;;5072469;28;20383;-87
2022/05/30 03:53:13;;;;;;;1.98;1.60;;;;;;;;;;5072263;28;20398;-86
2022/05/30 03:55:43;;;;;;;2.63;1.70;;;;;;;;;;5072328;28;20437;-87
2022/05/30 03:58:09;;;;;;;2.17;1.33;;;;;;;;;;5072153;28;20486;-86
2022/05/30 04:00:36;;;;;;;2.38;1.45;;;;;;;;;;5034772;28;20801;-88
2022/05/30 04:03:03;;;;;;;2.55;1.70;;;;;;;;;;5055739;28;20433;-87
2022/05/30 04:05:29;;;;;;;2.13;1.33;;;;;;;;;;5054088;28;20387;-87
2022/05/30 04:07:57;;;;;;;1.50;1.40;;;;;;;;;;5072253;28;20379;-86
2022/05/30 04:10:23;;;;;;;2.83;1.92;;;;;;;;;;5071003;28;20376;-87
2022/05/30 04:12:50;;;;;;;2.47;1.80;;;;;;;;;;5072237;28;20462;-86
2022/05/30 04:15:18;;;;;;;2.50;1.88;;;;;;;;;;5071352;28;20390;-87
2022/05/30 04:17:44;;;;;;;1.60;1.40;;;;;;;;;;5071989;28;20407;-87
2022/05/30 04:20:10;;;;;;;3.47;1.98;;;;;;;;;;5071733;28;20725;-86
2022/05/30 04:22:37;;;;;;;2.65;1.48;;;;;;;;;;5072026;28;20449;-86
2022/05/30 04:25:03;;;;;;;1.67;1.40;;;;;;;;;;5072238;28;20376;-87
2022/05/30 04:27:29;;;;;;;3.78;1.60;;;;;;;;;;5072197;28;20392;-87
2022/05/30 04:29:55;;;;;;;2.90;1.45;;;;;;;;;;5072307;28;20388;-86
2022/05/30 04:32:22;;;;;;;2.30;1.55;;;;;;;;;;5071851;28;20390;-87
2022/05/30 04:34:48;;;;;;;2.90;1.60;;;;;;;;;;5056148;28;20505;-86
2022/05/30 04:37:15;;;;;;;3.28;1.70;;;;;;;;;;5065929;28;20400;-86
2022/05/30 04:39:41;;;;;;;3.03;1.60;;;;;;;;;;5069022;28;20388;-86
2022/05/30 04:42:08;;;;;;;2.67;1.80;;;;;;;;;;5050525;28;20386;-87
2022/05/30 04:44:35;;;;;;;2.42;1.52;;;;;;;;;;5068605;28;20856;-86
2022/05/30 04:47:01;;;;;;;3.80;1.80;;;;;;;;;;5071947;28;20422;-86
2022/05/30 04:49:27;;;;;;;2.70;1.80;;;;;;;;;;5072062;28;20506;-87
2022/05/30 04:51:53;;;;;;;2.78;1.90;;;;;;;;;;5070131;28;20391;-86
2022/05/30 04:54:20;;;;;;;3.90;1.90;;;;;;;;;;5052293;28;20716;-87
2022/05/30 04:56:46;;;;;;;1.73;1.63;;;;;;;;;;5071653;28;20426;-87
2022/05/30 04:59:12;;;;;;;1.98;1.48;;;;;;;;;;5071645;28;20391;-87
2022/05/30 05:01:39;;;;;;;2.45;1.70;;;;;;;;;;5071663;28;20388;-87
2022/05/30 05:04:05;;;;;;;1.88;1.50;;;;;;;;;;5072039;28;20383;-87
2022/05/30 05:06:32;;;;;;;4.63;1.80;;;;;;;;;;5053689;28;20455;-87
2022/05/30 05:09:07;;;;;;;2.00;1.50;;;;;;;;;;5048322;28;20850;-88
2022/05/30 05:11:34;;;;;;;2.70;1.40;;;;;;;;;;5058676;28;20932;-87
2022/05/30 05:14:00;;;;;;;3.00;1.70;;;;;;;;;;5052595;28;20438;-86
2022/05/30 05:16:28;;;;;;;3.80;1.92;;;;;;;;;;5053605;28;20912;-87
2022/05/30 05:18:54;;;;;;;2.92;1.60;;;;;;;;;;5053002;28;20388;-87
2022/05/30 05:21:22;;;;;;;2.53;1.50;;;;;;;;;;5071645;28;20911;-88
2022/05/30 05:23:48;;;;;;;2.97;1.80;;;;;;;;;;5071516;28;20391;-88
2022/05/30 05:26:15;;;;;;;1.75;1.35;;;;;;;;;;5071511;28;20380;-89
2022/05/30 05:28:41;;;;;;;2.10;1.60;;;;;;;;;;5071756;28;20710;-87
2022/05/30 05:31:08;;;;;;;2.25;1.50;;;;;;;;;;5039718;28;20806;-88
2022/05/30 05:33:34;;;;;;;3.38;1.60;;;;;;;;;;5035246;28;20433;-89
2022/05/30 05:36:03;;;;;;;2.90;1.80;;;;;;;;;;5052615;28;20383;-88
2022/05/30 05:38:29;;;;;;;3.85;1.90;;;;;;;;;;5018141;28;20408;-87
2022/05/30 05:40:55;;;;;;;2.45;1.73;;;;;;;;;;5026582;28;20387;-89
2022/05/30 05:43:22;;;;;;;2.42;1.60;;;;;;;;;;5042364;28;20395;-88
2022/05/30 05:45:48;;;;;;;2.72;1.83;;;;;;;;;;5036665;28;20895;-88
2022/05/30 05:48:15;;;;;;;3.30;1.65;;;;;;;;;;5037518;28;20383;-87
2022/05/30 05:50:42;;;;;;;3.20;1.50;;;;;;;;;;5060271;28;20471;-88
2022/05/30 05:53:08;;;;;;;2.58;1.40;;;;;;;;;;5051915;28;20380;-89
2022/05/30 05:55:35;;;;;;;3.10;1.80;;;;;;;;;;5056414;28;20372;-88
2022/05/30 05:58:01;;;;;;;3.50;1.70;;;;;;;;;;5054364;28;20504;-88
2022/05/30 06:00:27;;;;;;;3.20;1.67;;;;;;;;;;5055378;28;20389;-89
2022/05/30 06:02:53;;;;;;;2.15;1.48;;;;;;;;;;5043519;28;20428;-89
2022/05/30 06:05:19;;;;;;;2.97;1.60;;;;;;;;;;5045294;28;20768;-88
2022/05/30 06:07:46;;;;;;;3.22;1.60;;;;;;;;;;5039646;28;20441;-89
2022/05/30 06:10:14;;;;;;;2.63;1.77;;;;;;;;;;5064009;28;20399;-88
2022/05/30 06:12:45;;;;;;;2.88;1.77;;;;;;;;;;5061244;28;20395;-89
2022/05/30 06:15:16;;;;;;;2.15;1.60;;;;;;;;;;5074120;28;20418;-90
2022/05/30 06:17:42;;;;;;;1.80;1.40;;;;;;;;;;5074199;28;20399;-89
2022/05/30 06:20:09;;;;;;;2.70;1.50;;;;;;;;;;5054876;28;20395;-88
2022/05/30 06:22:35;;;;;;;1.73;1.58;;;;;;;;;;5022560;28;20726;-89
2022/05/30 06:25:01;;;;;;;2.33;1.73;;;;;;;;;;5052220;28;20519;-89
2022/05/30 06:27:27;;;;;;;4.63;1.50;;;;;;;;;;5019911;28;20455;-90
2022/05/30 06:29:53;;;;;;;3.10;1.67;;;;;;;;;;5032758;28;20394;-88
2022/05/30 06:32:19;;;;;;;3.38;1.70;;;;;;;;;;5030503;28;20389;-88
2022/05/30 06:34:45;;;;;;;2.67;1.95;;;;;;;;;;5047000;28;20397;-90
2022/05/30 06:37:11;;;;;;;2.55;1.70;;;;;;;;;;5028330;28;20421;-89
2022/05/30 06:39:38;;;;;;;2.15;1.65;;;;;;;;;;5050770;28;20863;-88
2022/05/30 06:42:08;;;;;;;3.47;1.60;;;;;;;;;;5055799;28;20870;-90
2022/05/30 06:44:35;;;;;;;3.17;1.95;;;;;;;;;;5060794;28;20455;-89
2022/05/30 06:47:01;;;;;;;4.18;1.80;;;;;;;;;;5042415;28;20394;-90
2022/05/30 06:49:27;;;;;;;3.28;1.88;;;;;;;;;;5068448;28;20386;-88
2022/05/30 06:51:53;;;;;;;2.35;1.63;;;;;;;;;;5073567;28;20371;-87
2022/05/30 06:54:20;;;;;;;4.05;1.92;;;;;;;;;;5073544;28;20491;-87
2022/05/30 06:59:31;;;;;;;2.38;1.80;;;;;;;;;;5073546;28;20422;-88
2022/05/30 07:01:59;;;;;;;3.73;2.23;;;;;;;;;;5073397;28;20419;-87
2022/05/30 07:04:25;;;;;;;2.10;1.70;;;;;;;;;;5062682;28;20373;-87
2022/05/30 07:06:51;;;;;;;3.03;1.63;;;;;;;;;;5069221;28;20440;-88
2022/05/30 07:09:18;;;;;;;2.15;1.50;;;;;;;;;;5073204;28;20375;-88
2022/05/30 07:11:44;;;;;;;2.17;1.48;;;;;;;;;;5055042;28;20395;-88
2022/05/30 07:14:12;;;;;;;4.40;1.60;;;;;;;;;;5049511;28;20393;-87
2022/05/30 07:16:38;;;;;;;3.28;1.60;;;;;;;;;;5065408;28;20900;-88
2022/05/30 07:19:05;;;;;;;2.95;1.92;;;;;;;;;;5072913;28;20856;-88
2022/05/30 07:21:31;;;;;;;2.33;1.47;;;;;;;;;;5072890;28;20375;-88
2022/05/30 07:23:57;;;;;;;3.17;2.05;;;;;;;;;;5072831;28;20384;-88
2022/05/30 07:26:23;;;;;;;2.40;1.70;;;;;;;;;;5072825;28;20379;-89
2022/05/30 07:28:51;;;;;;;3.85;1.65;;;;;;;;;;5072800;28;20462;-88
2022/05/30 07:31:19;;;;;;;4.07;2.00;;;;;;;;;;5072931;28;20429;-87
2022/05/30 07:33:47;;;;;;;4.53;1.70;;;;;;;;;;5072677;28;20378;-87
2022/05/30 07:36:24;;;;;;;2.78;1.60;;;;;;;;;;5072485;28;20380;-88
2022/05/30 07:38:50;;;;;;;1.83;1.30;;;;;;;;;;5072797;28;20455;-87
2022/05/30 07:41:16;;;;;;;3.15;1.77;;;;;;;;;;5049285;28;20435;-89
2022/05/30 07:43:42;;;;;;;3.47;1.80;;;;;;;;;;5046144;28;20865;-88
2022/05/30 07:46:09;;;;;;;4.80;1.60;;;;;;;;;;5072787;28;20384;-87
2022/05/30 07:48:35;;;;;;;2.33;1.40;;;;;;;;;;5072665;28;20380;-86
2022/05/30 07:51:02;;;;;;;2.15;1.80;;;;;;;;;;5070958;28;20387;-88
2022/05/30 07:53:28;;;;;;;3.05;1.30;;;;;;;;;;5060061;28;20455;-87
2022/05/30 07:55:54;;;;;;;2.72;1.33;;;;;;;;;;5071692;28;20371;-87
2022/05/30 07:58:20;;;;;;;3.20;1.27;;;;;;;;;;5072285;28;20541;-87
2022/05/30 08:00:48;;;;;;;2.30;1.40;;;;;;;;;;5072433;28;20387;-87
2022/05/30 08:03:16;;;;;;;3.03;1.45;;;;;;;;;;5058110;28;20458;-86
2022/05/30 08:05:46;;;;;;;2.45;1.90;;;;;;;;;;5058309;28;20431;-87
2022/05/30 08:08:12;;;;;;;3.47;1.50;;;;;;;;;;5065863;28;20848;-87
2022/05/30 08:10:38;;;;;;;2.08;1.10;;;;;;;;;;5072211;28;20436;-87
2022/05/30 08:13:05;;;;;;;2.92;1.10;;;;;;;;;;5072429;28;20375;-88
2022/05/30 08:15:31;;;;;;;2.67;1.30;;;;;;;;;;5054099;28;20852;-88
2022/05/30 08:17:57;;;;;;;3.00;1.20;;;;;;;;;;5072310;28;20404;-87
2022/05/30 08:20:24;;;;;;;1.63;1.15;;;;;;;;;;5070789;28;20451;-87
2022/05/30 08:22:50;;;;;;;2.20;1.10;;;;;;;;;;5041650;28;20379;-88
2022/05/30 08:25:17;;;;;;;1.77;1.08;;;;;;;;;;5072069;28;20376;-87
2022/05/30 08:27:44;;;;;;;2.10;1.00;;;;;;;;;;5071984;28;20741;-87
2022/05/30 08:30:11;;;;;;;2.70;1.00;;;;;;;;;;5072116;28;20375;-87
2022/05/30 08:32:39;;;;;;;1.67;1.17;;;;;;;;;;5057724;28;20390;-87
2022/05/30 08:35:05;;;;;;;2.40;1.05;;;;;;;;;;5071961;28;20456;-87
2022/05/30 08:37:32;;;;;;;2.13;0.90;;;;;;;;;;5072324;28;20414;-88
2022/05/30 08:42:44;;;;;;;1.23;0.80;;;;;;;;;;5055838;28;20397;-87
2022/05/30 08:45:14;;;;;;;1.88;1.10;;;;;;;;;;5054509;28;20381;-87
2022/05/30 08:47:54;;;;;;;2.15;1.20;;;;;;;;;;5053708;28;20951;-87
2022/05/30 08:50:26;;;;;;;2.38;0.90;;;;;;;;;;5071781;28;20383;-87
2022/05/30 08:53:01;;;;;;;2.03;0.80;;;;;;;;;;5058224;28;20384;-88
2022/05/30 08:55:43;;;;;;;1.75;0.80;;;;;;;;;;5064392;28;20874;-88
2022/05/30 08:58:12;;;;;;;1.50;0.93;;;;;;;;;;5065422;28;20399;-86
2022/05/30 09:00:50;;;;;;;1.48;0.90;;;;;;;;;;5071519;28;20415;-87
2022/05/30 09:03:18;;;;;;;1.80;0.90;;;;;;;;;;5063684;28;20511;-87
2022/05/30 09:05:53;;;;;;;1.67;0.80;;;;;;;;;;5046185;28;20848;-88
2022/05/30 09:08:31;;;;;;;1.92;0.88;;;;;;;;;;5052480;28;20391;-87
2022/05/30 09:10:59;;;;;;;1.60;0.90;;;;;;;;;;5051080;28;20383;-87
2022/05/30 09:13:28;;;;;;;1.30;0.80;;;;;;;;;;5041517;28;20486;-87
2022/05/30 09:16:03;;;;;;;1.30;0.80;;;;;;;;;;5049934;28;20386;-87
2022/05/30 09:18:50;;;;;;;1.80;1.00;;;;;;;;;;5037316;28;20502;-87
2022/05/30 09:21:16;;;;;;;2.05;0.90;;;;;;;;;;5051745;28;20394;-86
2022/05/30 09:23:43;;;;;;;1.98;1.00;;;;;;;;;;5036814;28;20399;-88
2022/05/30 09:26:16;;;;;;;2.00;0.90;;;;;;;;;;5042085;28;20370;-89
2022/05/30 09:28:46;;;;;;;1.67;0.85;;;;;;;;;;5040155;28;20388;-87
2022/05/30 09:31:22;;;;;;;1.92;1.00;;;;;;;;;;5032033;28;20417;-87
2022/05/30 09:33:50;;;;;;;1.90;0.90;;;;;;;;;;5054708;28;20389;-88
2022/05/30 09:36:19;;;;;;;3.72;0.95;;;;;;;;;;5060408;28;20402;-88
2022/05/30 09:38:47;;;;;;;1.73;1.00;;;;;;;;;;5075071;28;20372;-88
2022/05/30 09:41:17;;;;;;;2.20;1.00;;;;;;;;;;5074678;28;20379;-88
2022/05/30 09:44:03;;;;;;;2.78;0.90;;;;;;;;;;5058009;28;20372;-88
2022/05/30 09:46:43;;;;;;;1.58;0.70;;;;;;;;;;5058029;28;20383;-88
2022/05/30 09:49:15;;;;;;;2.00;0.70;;;;;;;;;;5029965;28;20722;-88
2022/05/30 09:51:43;;;;;;;1.92;0.70;;;;;;;;;;5048399;28;20471;-89
2022/05/30 09:54:11;;;;;;;4.30;0.90;;;;;;;;;;5048690;28;20792;-89
2022/05/30 09:56:40;;;;;;;1.75;0.85;;;;;;;;;;5049733;28;20417;-90
2022/05/30 09:59:13;;;;;;;6.53;1.17;;;;;;;;;;5061843;28;20387;-89
2022/05/30 10:01:40;;;;;;;4.55;0.90;;;;;;;;;;5060867;28;20397;-89
2022/05/30 10:04:13;;;;;;;4.78;0.88;;;;;;;;;;5040649;28;20419;-90
2022/05/30 10:06:39;;;;;;;3.85;1.10;;;;;;;;;;5038819;28;20391;-92
2022/05/30 10:09:16;;;;;;;2.20;0.88;;;;;;;;;;5038241;28;20887;-92
2022/05/30 10:11:42;;;;;;;1.15;0.70;;;;;;;;;;5054207;28;20401;-91
2022/05/30 10:14:19;;;;;;;2.10;0.80;;;;;;;;;;5052904;28;20468;-92
2022/05/30 10:16:45;;;;;;;2.17;0.68;;;;;;;;;;5053390;28;20415;-91
2022/05/30 10:19:21;;;;;;;2.40;0.70;;;;;;;;;;5049395;28;20477;-91
2022/05/30 10:30:40;;;;;;;2.40;0.68;;;;;;;;;;5063223;28;20355;-89
2022/05/30 10:33:26;;;;;;;1.38;0.80;;;;;;;;;;5062426;28;20376;-91
2022/05/30 10:36:14;;;;;;;2.83;0.82;;;;;;;;;;5059128;28;20741;-88
2022/05/30 10:38:59;;;;;;;1.55;0.90;;;;;;;;;;5050250;28;20405;-91
2022/05/30 10:41:24;;;;;;;1.50;0.80;;;;;;;;;;5049056;28;20382;-91
2022/05/30 10:44:06;;;;;;;1.30;0.70;;;;;;;;;;5071027;28;20464;-90
2022/05/30 10:47:01;;;;;;;1.85;0.80;;;;;;;;;;5073943;28;20368;-90
2022/05/30 10:49:31;;;;;;;1.85;0.70;;;;;;;;;;4985434;28;20389;-90
2022/05/30 10:52:02;;;;;;;2.65;0.95;;;;;;;;;;5066727;28;20695;-90
2022/05/30 10:54:47;;;;;;;2.80;0.80;;;;;;;;;;5032934;28;20950;-90
2022/05/30 10:57:32;;;;;;;2.03;0.68;;;;;;;;;;5052477;28;20909;-88
2022/05/30 11:00:10;;;;;;;1.63;0.70;;;;;;;;;;5060174;28;20554;-89
2022/05/30 11:02:46;;;;;;;1.95;0.80;;;;;;;;;;5059923;28;20422;-91
2022/05/30 11:05:18;;;;;;;2.20;0.70;;;;;;;;;;5062362;28;20374;-92
2022/05/30 11:08:04;;;;;;;2.72;0.90;;;;;;;;;;5044631;28;20404;-91
2022/05/30 11:10:30;;;;;;;4.25;1.00;;;;;;;;;;5072975;28;20384;-86
2022/05/30 11:13:14;;;;;;;2.22;0.73;;;;;;;;;;5073538;28;20395;-87
2022/05/30 11:15:53;;;;;;;2.80;1.27;;;;;;;;;;5072965;28;20865;-90
2022/05/30 11:18:30;;;;;;;1.58;1.00;;;;;;;;;;5072672;28;20414;-92
2022/05/30 11:21:12;;;;;;;1.50;0.80;;;;;;;;;;5072944;28;20379;-88
2022/05/30 11:23:39;;;;;;;3.20;1.05;;;;;;;;;;5072933;28;20376;-87
2022/05/30 11:26:17;;;;;;;1.57;0.80;;;;;;;;;;5072776;28;20376;-87
2022/05/30 11:28:54;;;;;;;1.58;1.00;;;;;;;;;;5072469;28;20375;-87
2022/05/30 11:31:46;;;;;;;1.48;0.75;;;;;;;;;;5054592;28;20861;-86
2022/05/30 11:34:30;;;;;;;1.38;0.68;;;;;;;;;;5060508;28;20398;-84
2022/05/30 11:37:02;;;;;;;1.42;0.80;;;;;;;;;;5072601;28;20468;-86
2022/05/30 11:39:43;;;;;;;1.77;0.70;;;;;;;;;;5060785;28;20737;-87
2022/05/30 11:42:27;;;;;;;2.85;0.90;;;;;;;;;;5058469;28;20429;-84
2022/05/30 11:45:04;;;;;;;1.55;0.70;;;;;;;;;;5046684;28;20379;-85
2022/05/30 11:47:48;;;;;;;0.98;0.70;;;;;;;;;;5068036;28;20381;-90
2022/05/30 11:50:21;;;;;;;1.38;0.90;;;;;;;;;;5040671;28;20410;-87
2022/05/30 11:53:01;;;;;;;1.17;0.70;;;;;;;;;;5067298;28;20376;-87
2022/05/30 11:55:31;;;;;;;1.10;0.63;;;;;;;;;;5051476;28;20393;-88
2022/05/30 11:58:05;;;;;;;2.28;0.75;;;;;;;;;;5052843;28;20463;-87
2022/05/30 12:00:35;;;;;;;1.23;0.70;;;;;;;;;;5040070;28;20399;-87
2022/05/30 12:03:04;;;;;;;1.40;0.70;;;;;;;;;;5034477;28;20396;-87
2022/05/30 12:05:40;;;;;;;1.70;0.77;;;;;;;;;;5038596;28;20466;-89
2022/05/30 12:08:14;;;;;;;1.95;0.70;;;;;;;;;;5036553;28;20415;-88
2022/05/30 12:10:50;;;;;;;1.98;0.80;;;;;;;;;;5044608;28;20453;-89
2022/05/30 12:13:36;;;;;;;2.00;0.70;;;;;;;;;;5057620;28;20390;-90
2022/05/30 12:16:28;;;;;;;2.47;0.80;;;;;;;;;;5021678;28;20861;-89
2022/05/30 12:24:37;;;;;;;1.88;0.90;;;;;;;;;;5072528;28;20398;-89
2022/05/30 12:27:05;;;;;;;2.03;0.90;;;;;;;;;;5039951;28;20428;-89
2022/05/30 12:29:31;;;;;;;1.48;0.75;;;;;;;;;;5040509;28;20853;-89
2022/05/30 12:32:16;;;;;;;1.13;0.60;;;;;;;;;;5072151;28;20384;-89
2022/05/30 12:35:00;;;;;;;1.58;0.60;;;;;;;;;;5028550;28;20884;-90
2022/05/30 12:37:46;;;;;;;1.42;0.70;;;;;;;;;;5071857;28;20419;-89
2022/05/30 12:40:25;;;;;;;2.00;0.60;;;;;;;;;;5054877;28;20883;-89
2022/05/30 12:42:57;;;;;;;1.73;0.88;;;;;;;;;;5058757;28;20467;-89
2022/05/30 12:45:35;;;;;;;2.08;0.80;;;;;;;;;;5064180;28;20410;-89
2022/05/30 12:48:10;;;;;;;1.67;0.80;;;;;;;;;;5074659;28;20380;-88
2022/05/30 12:50:39;;;;;;;1.07;0.80;;;;;;;;;;5076024;28;20379;-89
2022/05/30 12:53:06;;;;;;;2.22;0.93;;;;;;;;;;5075689;28;20402;-88
2022/05/30 12:55:34;;;;;;;3.05;1.15;;;;;;;;;;5075352;28;20387;-88
2022/05/30 12:58:00;;;;;;;3.13;1.00;;;;;;;;;;5056449;28;20437;-88
2022/05/30 13:00:29;;;;;;;2.10;1.00;;;;;;;;;;5074736;28;20445;-88
2022/05/30 13:02:59;;;;;;;1.80;0.90;;;;;;;;;;5075588;28;20392;-89
2022/05/30 13:05:41;;;;;;;1.88;1.13;;;;;;;;;;5050085;28;20387;-89
2022/05/30 13:08:26;;;;;;;1.73;1.00;;;;;;;;;;5038624;28;20395;-88
2022/05/30 13:10:56;;;;;;;1.50;0.82;;;;;;;;;;5037390;28;20452;-88
2022/05/30 13:13:26;;;;;;;1.50;0.85;;;;;;;;;;5062782;28;20387;-89
2022/05/30 13:15:56;;;;;;;2.40;0.80;;;;;;;;;;5048534;28;20395;-89
2022/05/30 13:18:22;;;;;;;1.47;0.80;;;;;;;;;;5075683;28;20490;-89
2022/05/30 13:21:10;;;;;;;1.77;0.93;;;;;;;;;;5066463;28;20467;-90
2022/05/30 13:23:36;;;;;;;2.97;1.15;;;;;;;;;;5064661;28;20382;-88
2022/05/30 13:26:04;;;;;;;2.10;1.00;;;;;;;;;;5060930;28;20375;-88
2022/05/30 13:28:32;;;;;;;8.38;1.40;;;;;;;;;;5043683;28;20872;-88
2022/05/30 13:31:01;;;;;;;1.98;1.10;;;;;;;;;;5044894;28;20383;-91
2022/05/30 13:33:37;;;;;;;2.30;1.10;;;;;;;;;;5062466;28;20379;-89
2022/05/30 13:36:05;;;;;;;1.30;0.98;;;;;;;;;;5057350;28;20464;-88
2022/05/30 13:38:41;;;;;;;6.50;1.02;;;;;;;;;;5065375;28;20412;-87
2022/05/30 13:41:24;;;;;;;1.67;0.90;;;;;;;;;;5074767;28;20887;-88
2022/05/30 13:43:51;;;;;;;2.70;0.95;;;;;;;;;;5059807;28;20372;-89
2022/05/30 13:46:24;;;;;;;3.10;1.00;;;;;;;;;;5074758;28;20382;-88
2022/05/30 13:48:50;;;;;;;3.83;1.30;;;;;;;;;;5074568;28;20372;-87
2022/05/30 13:51:19;;;;;;;3.00;1.00;;;;;;;;;;5049657;28;20402;-86
2022/05/30 13:53:47;;;;;;;5.47;1.17;;;;;;;;;;5037653;28;20407;-87
2022/05/30 13:56:13;;;;;;;1.83;0.85;;;;;;;;;;5047152;28;20377;-87
2022/05/30 13:58:45;;;;;;;1.92;1.00;;;;;;;;;;5039818;28;20456;-87
2022/05/30 14:01:13;;;;;;;3.08;1.15;;;;;;;;;;5036808;28;20395;-87
2022/05/30 14:03:47;;;;;;;3.80;1.00;;;;;;;;;;5045139;28;20376;-88
2022/05/30 14:06:31;;;;;;;1.30;0.82;;;;;;;;;;5039294;28;20383;-88
2022/05/30 14:08:57;;;;;;;2.75;1.20;;;;;;;;;;5030086;28;20756;-88
2022/05/30 14:11:24;;;;;;;3.90;1.20;;;;;;;;;;5034793;28;20406;-88
2022/05/30 14:13:52;;;;;;;2.40;1.20;;;;;;;;;;5034505;28;20498;-88
2022/05/30 14:16:34;;;;;;;1.75;1.10;;;;;;;;;;5038309;28;20849;-88
2022/05/30 14:19:06;;;;;;;1.98;1.20;;;;;;;;;;5041938;28;20388;-88
2022/05/30 14:21:33;;;;;;;2.78;1.40;;;;;;;;;;5036635;28;20379;-88
2022/05/30 14:24:13;;;;;;;2.42;1.38;;;;;;;;;;5042218;28;20368;-88
2022/05/30 14:26:39;;;;;;;2.70;1.23;;;;;;;;;;5042222;28;20371;-88
2022/05/30 14:29:07;;;;;;;1.90;1.15;;;;;;;;;;5034712;28;20387;-88
2022/05/30 14:31:34;;;;;;;2.30;1.20;;;;;;;;;;5036660;28;20862;-88
2022/05/30 14:34:14;;;;;;;2.25;1.00;;;;;;;;;;5045361;28;20833;-87
2022/05/30 14:36:40;;;;;;;2.45;0.80;;;;;;;;;;5044982;28;20377;-88
2022/05/30 14:39:10;;;;;;;2.25;0.95;;;;;;;;;;5045387;28;20442;-88
2022/05/30 14:41:36;;;;;;;1.40;0.85;;;;;;;;;;5044997;28;20379;-88
2022/05/30 14:44:03;;;;;;;2.03;0.90;;;;;;;;;;5034042;28;20387;-87
2022/05/30 14:46:32;;;;;;;1.73;1.00;;;;;;;;;;5049201;28;20371;-87
2022/05/30 14:48:58;;;;;;;2.58;1.17;;;;;;;;;;5028146;28;20874;-87
2022/05/30 14:51:32;;;;;;;3.10;1.00;;;;;;;;;;5041730;28;20398;-87
2022/05/30 14:54:02;;;;;;;2.53;1.02;;;;;;;;;;5041661;28;20476;-88
2022/05/30 14:56:29;;;;;;;2.67;1.05;;;;;;;;;;5019590;28;20814;-87
2022/05/30 14:58:59;;;;;;;1.80;1.10;;;;;;;;;;5039036;28;20391;-88
2022/05/30 15:01:25;;;;;;;2.90;0.90;;;;;;;;;;5032916;28;20379;-89
2022/05/30 15:04:12;;;;;;;1.70;0.98;;;;;;;;;;5051364;28;20452;-86
2022/05/30 15:06:43;;;;;;;2.30;0.73;;;;;;;;;;5039041;28;20375;-88
2022/05/30 15:09:10;;;;;;;1.80;0.80;;;;;;;;;;5039197;28;20424;-87
2022/05/30 15:11:39;;;;;;;2.00;0.80;;;;;;;;;;5044111;28;20456;-85
2022/05/30 15:14:11;;;;;;;1.40;0.73;;;;;;;;;;5072118;28;20380;-85
2022/05/30 15:16:37;;;;;;;1.73;0.70;;;;;;;;;;5072534;28;20463;-85
2022/05/30 15:19:03;;;;;;;2.10;1.10;;;;;;;;;;5072465;28;20464;-86
2022/05/30 15:21:34;;;;;;;1.10;0.80;;;;;;;;;;5072432;28;20371;-86
2022/05/30 15:24:01;;;;;;;1.40;0.82;;;;;;;;;;5072361;28;20380;-86
2022/05/30 15:26:27;;;;;;;1.80;0.80;;;;;;;;;;5072417;28;20383;-86